sensor_id;sensor_type;location;lat;lon;timestamp;P1;durP1;ratioP1;P2;durP2;ratioP2
75038;SDS011;63609;49.992;14.512;2024-02-16T00:00:59;19.90;;;8.50;;
75038;SDS011;63609;49.992;14.512;2024-02-16T00:03:26;15.40;;;7.68;;
75038;SDS011;63609;49.992;14.512;2024-02-16T00:05:54;13.60;;;8.38;;
75038;SDS011;63609;49.992;14.512;2024-02-16T00:08:21;14.65;;;8.13;;
75038;SDS011;63609;49.992;14.512;2024-02-16T00:10:48;16.80;;;9.32;;
75038;SDS011;63609;49.992;14.512;2024-02-16T00:13:15;15.00;;;7.70;;
75038;SDS011;63609;49.992;14.512;2024-02-16T00:15:42;14.45;;;7.78;;
75038;SDS011;63609;49.992;14.512;2024-02-16T00:18:09;17.65;;;8.30;;
75038;SDS011;63609;49.992;14.512;2024-02-16T00:23:02;15.13;;;7.93;;
75038;SDS011;63609;49.992;14.512;2024-02-16T00:25:30;18.60;;;8.50;;
75038;SDS011;63609;49.992;14.512;2024-02-16T00:27:57;15.52;;;7.82;;
75038;SDS011;63609;49.992;14.512;2024-02-16T00:30:25;15.82;;;8.98;;
75038;SDS011;63609;49.992;14.512;2024-02-16T00:32:51;16.80;;;9.52;;
75038;SDS011;63609;49.992;14.512;2024-02-16T00:35:19;19.08;;;9.60;;
75038;SDS011;63609;49.992;14.512;2024-02-16T00:37:46;16.20;;;9.32;;
75038;SDS011;63609;49.992;14.512;2024-02-16T00:42:39;18.15;;;9.10;;
75038;SDS011;63609;49.992;14.512;2024-02-16T00:45:06;19.70;;;9.82;;
75038;SDS011;63609;49.992;14.512;2024-02-16T00:47:35;16.67;;;9.32;;
75038;SDS011;63609;49.992;14.512;2024-02-16T00:50:02;17.30;;;8.88;;
75038;SDS011;63609;49.992;14.512;2024-02-16T00:52:32;18.58;;;10.13;;
75038;SDS011;63609;49.992;14.512;2024-02-16T00:54:59;18.83;;;9.82;;
75038;SDS011;63609;49.992;14.512;2024-02-16T00:57:25;19.13;;;10.27;;
75038;SDS011;63609;49.992;14.512;2024-02-16T00:59:52;18.98;;;10.27;;
75038;SDS011;63609;49.992;14.512;2024-02-16T01:03:32;16.23;;;9.32;;
75038;SDS011;63609;49.992;14.512;2024-02-16T01:05:59;17.48;;;9.63;;
75038;SDS011;63609;49.992;14.512;2024-02-16T01:08:26;16.73;;;8.68;;
75038;SDS011;63609;49.992;14.512;2024-02-16T01:10:54;17.05;;;8.50;;
75038;SDS011;63609;49.992;14.512;2024-02-16T01:13:22;15.95;;;9.05;;
75038;SDS011;63609;49.992;14.512;2024-02-16T01:18:15;15.70;;;8.70;;
75038;SDS011;63609;49.992;14.512;2024-02-16T01:20:43;14.70;;;8.05;;
75038;SDS011;63609;49.992;14.512;2024-02-16T01:23:09;14.48;;;7.63;;
75038;SDS011;63609;49.992;14.512;2024-02-16T01:25:36;14.02;;;8.60;;
75038;SDS011;63609;49.992;14.512;2024-02-16T01:30:30;14.45;;;7.47;;
75038;SDS011;63609;49.992;14.512;2024-02-16T01:32:57;16.52;;;7.22;;
75038;SDS011;63609;49.992;14.512;2024-02-16T01:35:24;17.02;;;8.77;;
75038;SDS011;63609;49.992;14.512;2024-02-16T01:37:50;16.83;;;8.45;;
75038;SDS011;63609;49.992;14.512;2024-02-16T01:40:17;21.65;;;9.27;;
75038;SDS011;63609;49.992;14.512;2024-02-16T01:42:44;15.93;;;8.95;;
75038;SDS011;63609;49.992;14.512;2024-02-16T01:45:13;22.35;;;9.32;;
75038;SDS011;63609;49.992;14.512;2024-02-16T01:47:41;21.65;;;9.80;;
75038;SDS011;63609;49.992;14.512;2024-02-16T01:50:12;18.20;;;9.15;;
75038;SDS011;63609;49.992;14.512;2024-02-16T01:52:39;17.98;;;9.77;;
75038;SDS011;63609;49.992;14.512;2024-02-16T01:55:07;20.23;;;10.10;;
75038;SDS011;63609;49.992;14.512;2024-02-16T01:57:37;17.98;;;9.48;;
75038;SDS011;63609;49.992;14.512;2024-02-16T02:00:05;18.85;;;8.75;;
75038;SDS011;63609;49.992;14.512;2024-02-16T02:02:35;16.88;;;8.48;;
75038;SDS011;63609;49.992;14.512;2024-02-16T02:05:03;18.70;;;8.40;;
75038;SDS011;63609;49.992;14.512;2024-02-16T02:07:30;18.30;;;8.30;;
75038;SDS011;63609;49.992;14.512;2024-02-16T02:09:57;20.30;;;9.50;;
75038;SDS011;63609;49.992;14.512;2024-02-16T02:12:24;17.75;;;8.90;;
75038;SDS011;63609;49.992;14.512;2024-02-16T02:14:53;14.90;;;8.40;;
75038;SDS011;63609;49.992;14.512;2024-02-16T02:19:46;15.30;;;8.48;;
75038;SDS011;63609;49.992;14.512;2024-02-16T02:22:15;14.88;;;7.97;;
75038;SDS011;63609;49.992;14.512;2024-02-16T02:24:42;16.35;;;8.00;;
75038;SDS011;63609;49.992;14.512;2024-02-16T02:27:11;18.73;;;8.57;;
75038;SDS011;63609;49.992;14.512;2024-02-16T02:29:39;19.27;;;8.18;;
75038;SDS011;63609;49.992;14.512;2024-02-16T02:32:07;19.58;;;8.45;;
75038;SDS011;63609;49.992;14.512;2024-02-16T02:34:34;18.10;;;9.10;;
75038;SDS011;63609;49.992;14.512;2024-02-16T02:37:03;19.17;;;9.30;;
75038;SDS011;63609;49.992;14.512;2024-02-16T02:39:30;17.50;;;7.50;;
75038;SDS011;63609;49.992;14.512;2024-02-16T02:41:58;20.60;;;9.15;;
75038;SDS011;63609;49.992;14.512;2024-02-16T02:44:25;19.58;;;9.15;;
75038;SDS011;63609;49.992;14.512;2024-02-16T02:46:52;23.08;;;9.43;;
75038;SDS011;63609;49.992;14.512;2024-02-16T02:49:19;18.77;;;10.15;;
75038;SDS011;63609;49.992;14.512;2024-02-16T02:51:46;21.15;;;9.60;;
75038;SDS011;63609;49.992;14.512;2024-02-16T02:54:13;21.23;;;9.80;;
75038;SDS011;63609;49.992;14.512;2024-02-16T02:56:39;19.77;;;9.98;;
75038;SDS011;63609;49.992;14.512;2024-02-16T02:59:06;19.20;;;8.85;;
75038;SDS011;63609;49.992;14.512;2024-02-16T03:01:34;22.75;;;10.55;;
75038;SDS011;63609;49.992;14.512;2024-02-16T03:04:02;19.73;;;9.40;;
75038;SDS011;63609;49.992;14.512;2024-02-16T03:06:30;19.92;;;9.45;;
75038;SDS011;63609;49.992;14.512;2024-02-16T03:08:57;20.60;;;9.77;;
75038;SDS011;63609;49.992;14.512;2024-02-16T03:11:24;21.17;;;9.77;;
75038;SDS011;63609;49.992;14.512;2024-02-16T03:16:17;19.15;;;8.38;;
75038;SDS011;63609;49.992;14.512;2024-02-16T03:21:14;19.30;;;8.73;;
75038;SDS011;63609;49.992;14.512;2024-02-16T03:23:44;19.98;;;9.00;;
75038;SDS011;63609;49.992;14.512;2024-02-16T03:26:15;23.83;;;9.45;;
75038;SDS011;63609;49.992;14.512;2024-02-16T03:28:46;19.25;;;8.88;;
75038;SDS011;63609;49.992;14.512;2024-02-16T03:31:18;20.33;;;9.57;;
75038;SDS011;63609;49.992;14.512;2024-02-16T03:33:49;19.35;;;9.15;;
75038;SDS011;63609;49.992;14.512;2024-02-16T03:36:18;21.30;;;9.18;;
75038;SDS011;63609;49.992;14.512;2024-02-16T03:38:46;18.13;;;8.70;;
75038;SDS011;63609;49.992;14.512;2024-02-16T03:41:19;19.63;;;9.13;;
75038;SDS011;63609;49.992;14.512;2024-02-16T03:43:46;17.08;;;8.05;;
75038;SDS011;63609;49.992;14.512;2024-02-16T03:46:13;18.20;;;9.82;;
75038;SDS011;63609;49.992;14.512;2024-02-16T03:48:40;20.67;;;9.85;;
75038;SDS011;63609;49.992;14.512;2024-02-16T03:51:08;18.80;;;9.80;;
75038;SDS011;63609;49.992;14.512;2024-02-16T03:53:35;17.77;;;8.82;;
75038;SDS011;63609;49.992;14.512;2024-02-16T03:58:28;20.20;;;8.75;;
75038;SDS011;63609;49.992;14.512;2024-02-16T04:00:55;16.30;;;8.32;;
75038;SDS011;63609;49.992;14.512;2024-02-16T04:03:22;20.65;;;8.75;;
75038;SDS011;63609;49.992;14.512;2024-02-16T04:08:16;18.33;;;8.10;;
75038;SDS011;63609;49.992;14.512;2024-02-16T04:13:11;23.27;;;9.57;;
75038;SDS011;63609;49.992;14.512;2024-02-16T04:15:38;18.52;;;8.65;;
75038;SDS011;63609;49.992;14.512;2024-02-16T04:20:35;23.25;;;9.27;;
75038;SDS011;63609;49.992;14.512;2024-02-16T04:23:02;23.60;;;10.98;;
75038;SDS011;63609;49.992;14.512;2024-02-16T04:25:30;25.58;;;11.00;;
75038;SDS011;63609;49.992;14.512;2024-02-16T04:27:56;26.13;;;13.23;;
75038;SDS011;63609;49.992;14.512;2024-02-16T04:30:23;27.02;;;11.68;;
75038;SDS011;63609;49.992;14.512;2024-02-16T04:32:51;23.40;;;10.32;;
75038;SDS011;63609;49.992;14.512;2024-02-16T04:35:19;20.48;;;11.20;;
75038;SDS011;63609;49.992;14.512;2024-02-16T04:37:46;20.27;;;9.88;;
75038;SDS011;63609;49.992;14.512;2024-02-16T04:40:12;23.33;;;10.68;;
75038;SDS011;63609;49.992;14.512;2024-02-16T04:42:39;24.88;;;10.93;;
75038;SDS011;63609;49.992;14.512;2024-02-16T04:45:12;18.15;;;9.27;;
75038;SDS011;63609;49.992;14.512;2024-02-16T04:47:40;22.38;;;9.60;;
75038;SDS011;63609;49.992;14.512;2024-02-16T04:50:07;20.25;;;9.90;;
75038;SDS011;63609;49.992;14.512;2024-02-16T04:52:37;21.95;;;10.48;;
75038;SDS011;63609;49.992;14.512;2024-02-16T04:55:06;22.48;;;9.30;;
75038;SDS011;63609;49.992;14.512;2024-02-16T04:57:34;22.35;;;10.35;;
75038;SDS011;63609;49.992;14.512;2024-02-16T05:00:02;19.75;;;9.65;;
75038;SDS011;63609;49.992;14.512;2024-02-16T05:02:30;20.00;;;9.23;;
75038;SDS011;63609;49.992;14.512;2024-02-16T05:04:56;22.45;;;10.85;;
75038;SDS011;63609;49.992;14.512;2024-02-16T05:07:28;17.85;;;9.43;;
75038;SDS011;63609;49.992;14.512;2024-02-16T05:12:25;27.17;;;10.70;;
75038;SDS011;63609;49.992;14.512;2024-02-16T05:14:53;24.88;;;10.88;;
75038;SDS011;63609;49.992;14.512;2024-02-16T05:17:20;26.05;;;11.48;;
75038;SDS011;63609;49.992;14.512;2024-02-16T05:19:49;25.08;;;11.45;;
75038;SDS011;63609;49.992;14.512;2024-02-16T05:22:16;26.98;;;11.23;;
75038;SDS011;63609;49.992;14.512;2024-02-16T05:24:48;26.15;;;10.52;;
75038;SDS011;63609;49.992;14.512;2024-02-16T05:27:15;27.55;;;12.52;;
75038;SDS011;63609;49.992;14.512;2024-02-16T05:29:42;28.15;;;11.63;;
75038;SDS011;63609;49.992;14.512;2024-02-16T05:32:08;27.13;;;12.95;;
75038;SDS011;63609;49.992;14.512;2024-02-16T05:34:37;25.08;;;12.40;;
75038;SDS011;63609;49.992;14.512;2024-02-16T05:37:05;30.17;;;12.70;;
75038;SDS011;63609;49.992;14.512;2024-02-16T05:39:35;34.33;;;13.43;;
75038;SDS011;63609;49.992;14.512;2024-02-16T05:42:10;28.58;;;13.10;;
75038;SDS011;63609;49.992;14.512;2024-02-16T05:44:37;24.85;;;11.48;;
75038;SDS011;63609;49.992;14.512;2024-02-16T05:47:05;28.38;;;11.27;;
75038;SDS011;63609;49.992;14.512;2024-02-16T05:51:59;26.23;;;11.05;;
75038;SDS011;63609;49.992;14.512;2024-02-16T05:54:45;23.73;;;11.23;;
75038;SDS011;63609;49.992;14.512;2024-02-16T05:57:13;26.05;;;11.13;;
75038;SDS011;63609;49.992;14.512;2024-02-16T05:59:41;24.20;;;10.98;;
75038;SDS011;63609;49.992;14.512;2024-02-16T06:02:08;20.58;;;10.23;;
75038;SDS011;63609;49.992;14.512;2024-02-16T06:04:38;22.05;;;11.25;;
75038;SDS011;63609;49.992;14.512;2024-02-16T06:07:06;23.30;;;9.98;;
75038;SDS011;63609;49.992;14.512;2024-02-16T06:09:34;24.70;;;12.07;;
75038;SDS011;63609;49.992;14.512;2024-02-16T06:12:02;25.50;;;12.43;;
75038;SDS011;63609;49.992;14.512;2024-02-16T06:14:31;26.52;;;11.98;;
75038;SDS011;63609;49.992;14.512;2024-02-16T06:16:58;27.30;;;12.20;;
75038;SDS011;63609;49.992;14.512;2024-02-16T06:19:25;27.00;;;12.20;;
75038;SDS011;63609;49.992;14.512;2024-02-16T06:21:53;23.52;;;11.18;;
75038;SDS011;63609;49.992;14.512;2024-02-16T06:24:22;29.95;;;12.60;;
75038;SDS011;63609;49.992;14.512;2024-02-16T06:26:50;27.90;;;13.10;;
75038;SDS011;63609;49.992;14.512;2024-02-16T06:29:22;31.30;;;13.68;;
75038;SDS011;63609;49.992;14.512;2024-02-16T06:31:50;25.13;;;12.10;;
75038;SDS011;63609;49.992;14.512;2024-02-16T06:34:17;24.23;;;12.13;;
75038;SDS011;63609;49.992;14.512;2024-02-16T06:36:45;25.83;;;12.45;;
75038;SDS011;63609;49.992;14.512;2024-02-16T06:41:44;26.52;;;12.23;;
75038;SDS011;63609;49.992;14.512;2024-02-16T06:44:12;27.52;;;12.15;;
75038;SDS011;63609;49.992;14.512;2024-02-16T06:46:39;26.48;;;11.10;;
75038;SDS011;63609;49.992;14.512;2024-02-16T06:49:07;26.33;;;11.38;;
75038;SDS011;63609;49.992;14.512;2024-02-16T06:51:34;29.23;;;13.05;;
75038;SDS011;63609;49.992;14.512;2024-02-16T06:54:01;26.65;;;13.27;;
75038;SDS011;63609;49.992;14.512;2024-02-16T06:56:29;27.85;;;13.27;;
75038;SDS011;63609;49.992;14.512;2024-02-16T06:58:56;27.52;;;13.23;;
75038;SDS011;63609;49.992;14.512;2024-02-16T07:03:50;25.50;;;12.82;;
75038;SDS011;63609;49.992;14.512;2024-02-16T07:06:17;27.75;;;13.65;;
75038;SDS011;63609;49.992;14.512;2024-02-16T07:08:44;32.47;;;14.63;;
75038;SDS011;63609;49.992;14.512;2024-02-16T07:13:38;30.42;;;14.00;;
75038;SDS011;63609;49.992;14.512;2024-02-16T07:16:06;36.35;;;14.45;;
75038;SDS011;63609;49.992;14.512;2024-02-16T07:18:33;32.58;;;13.48;;
75038;SDS011;63609;49.992;14.512;2024-02-16T07:21:01;29.00;;;14.90;;
75038;SDS011;63609;49.992;14.512;2024-02-16T07:23:29;33.22;;;15.82;;
75038;SDS011;63609;49.992;14.512;2024-02-16T07:25:56;33.03;;;14.60;;
75038;SDS011;63609;49.992;14.512;2024-02-16T07:28:25;29.83;;;14.25;;
75038;SDS011;63609;49.992;14.512;2024-02-16T07:30:55;28.20;;;14.00;;
75038;SDS011;63609;49.992;14.512;2024-02-16T07:33:23;32.45;;;14.55;;
75038;SDS011;63609;49.992;14.512;2024-02-16T07:35:54;32.67;;;16.85;;
75038;SDS011;63609;49.992;14.512;2024-02-16T07:38:23;34.58;;;14.70;;
75038;SDS011;63609;49.992;14.512;2024-02-16T07:40:50;35.72;;;16.27;;
75038;SDS011;63609;49.992;14.512;2024-02-16T07:43:17;35.05;;;14.38;;
75038;SDS011;63609;49.992;14.512;2024-02-16T07:45:45;36.28;;;16.77;;
75038;SDS011;63609;49.992;14.512;2024-02-16T07:48:13;36.78;;;16.10;;
75038;SDS011;63609;49.992;14.512;2024-02-16T07:50:40;32.10;;;15.73;;
75038;SDS011;63609;49.992;14.512;2024-02-16T07:53:07;36.65;;;15.55;;
75038;SDS011;63609;49.992;14.512;2024-02-16T07:55:38;32.80;;;14.57;;
75038;SDS011;63609;49.992;14.512;2024-02-16T08:00:31;32.97;;;13.88;;
75038;SDS011;63609;49.992;14.512;2024-02-16T08:02:59;31.33;;;13.70;;
75038;SDS011;63609;49.992;14.512;2024-02-16T08:05:26;24.38;;;12.05;;
75038;SDS011;63609;49.992;14.512;2024-02-16T08:07:54;34.03;;;12.82;;
75038;SDS011;63609;49.992;14.512;2024-02-16T08:10:21;34.17;;;13.10;;
75038;SDS011;63609;49.992;14.512;2024-02-16T08:12:49;35.35;;;12.77;;
75038;SDS011;63609;49.992;14.512;2024-02-16T08:15:16;35.42;;;16.45;;
75038;SDS011;63609;49.992;14.512;2024-02-16T08:17:49;33.22;;;15.55;;
75038;SDS011;63609;49.992;14.512;2024-02-16T08:20:20;26.20;;;11.75;;
75038;SDS011;63609;49.992;14.512;2024-02-16T08:22:48;32.70;;;14.50;;
75038;SDS011;63609;49.992;14.512;2024-02-16T08:25:15;25.38;;;12.90;;
75038;SDS011;63609;49.992;14.512;2024-02-16T08:30:09;30.15;;;12.07;;
75038;SDS011;63609;49.992;14.512;2024-02-16T08:32:36;30.92;;;13.63;;
75038;SDS011;63609;49.992;14.512;2024-02-16T08:35:03;31.80;;;13.82;;
75038;SDS011;63609;49.992;14.512;2024-02-16T08:37:30;26.90;;;12.82;;
75038;SDS011;63609;49.992;14.512;2024-02-16T08:39:58;39.00;;;15.43;;
75038;SDS011;63609;49.992;14.512;2024-02-16T08:42:25;41.20;;;18.13;;
75038;SDS011;63609;49.992;14.512;2024-02-16T08:44:52;38.63;;;17.35;;
75038;SDS011;63609;49.992;14.512;2024-02-16T08:47:19;37.47;;;14.63;;
75038;SDS011;63609;49.992;14.512;2024-02-16T08:49:46;31.60;;;14.85;;
75038;SDS011;63609;49.992;14.512;2024-02-16T08:52:13;28.92;;;12.65;;
75038;SDS011;63609;49.992;14.512;2024-02-16T08:54:42;27.30;;;12.38;;
75038;SDS011;63609;49.992;14.512;2024-02-16T08:57:10;28.27;;;12.73;;
75038;SDS011;63609;49.992;14.512;2024-02-16T08:59:37;27.27;;;14.05;;
75038;SDS011;63609;49.992;14.512;2024-02-16T09:04:31;27.00;;;12.30;;
75038;SDS011;63609;49.992;14.512;2024-02-16T09:06:58;18.58;;;10.15;;
75038;SDS011;63609;49.992;14.512;2024-02-16T09:09:26;24.38;;;12.13;;
75038;SDS011;63609;49.992;14.512;2024-02-16T09:11:53;22.50;;;9.80;;
75038;SDS011;63609;49.992;14.512;2024-02-16T09:14:20;22.95;;;12.00;;
75038;SDS011;63609;49.992;14.512;2024-02-16T09:16:50;26.85;;;11.85;;
75038;SDS011;63609;49.992;14.512;2024-02-16T09:19:18;21.23;;;10.60;;
75038;SDS011;63609;49.992;14.512;2024-02-16T09:21:48;26.85;;;11.68;;
75038;SDS011;63609;49.992;14.512;2024-02-16T09:24:24;25.02;;;12.55;;
75038;SDS011;63609;49.992;14.512;2024-02-16T09:26:57;29.00;;;13.55;;
75038;SDS011;63609;49.992;14.512;2024-02-16T09:29:27;27.08;;;14.35;;
75038;SDS011;63609;49.992;14.512;2024-02-16T09:31:55;30.35;;;14.55;;
75038;SDS011;63609;49.992;14.512;2024-02-16T09:34:22;27.50;;;14.25;;
75038;SDS011;63609;49.992;14.512;2024-02-16T09:36:49;29.27;;;12.93;;
75038;SDS011;63609;49.992;14.512;2024-02-16T09:39:17;31.80;;;15.68;;
75038;SDS011;63609;49.992;14.512;2024-02-16T09:41:43;24.38;;;13.98;;
75038;SDS011;63609;49.992;14.512;2024-02-16T09:44:17;25.23;;;12.68;;
75038;SDS011;63609;49.992;14.512;2024-02-16T09:46:44;26.25;;;13.70;;
75038;SDS011;63609;49.992;14.512;2024-02-16T09:49:11;22.48;;;10.40;;
75038;SDS011;63609;49.992;14.512;2024-02-16T09:51:38;19.70;;;10.77;;
75038;SDS011;63609;49.992;14.512;2024-02-16T09:54:05;26.35;;;13.57;;
75038;SDS011;63609;49.992;14.512;2024-02-16T09:56:34;27.23;;;12.40;;
75038;SDS011;63609;49.992;14.512;2024-02-16T09:59:01;30.70;;;14.40;;
75038;SDS011;63609;49.992;14.512;2024-02-16T10:01:31;29.33;;;14.05;;
75038;SDS011;63609;49.992;14.512;2024-02-16T10:04:07;30.45;;;15.27;;
75038;SDS011;63609;49.992;14.512;2024-02-16T10:06:45;25.40;;;12.82;;
75038;SDS011;63609;49.992;14.512;2024-02-16T10:09:23;19.17;;;10.38;;
75038;SDS011;63609;49.992;14.512;2024-02-16T10:11:51;21.45;;;11.05;;
75038;SDS011;63609;49.992;14.512;2024-02-16T10:14:18;21.23;;;10.00;;
75038;SDS011;63609;49.992;14.512;2024-02-16T10:16:47;20.15;;;9.73;;
75038;SDS011;63609;49.992;14.512;2024-02-16T10:19:17;25.95;;;12.43;;
75038;SDS011;63609;49.992;14.512;2024-02-16T10:21:44;21.20;;;11.32;;
75038;SDS011;63609;49.992;14.512;2024-02-16T10:24:12;19.58;;;9.50;;
75038;SDS011;63609;49.992;14.512;2024-02-16T10:26:41;21.92;;;10.30;;
75038;SDS011;63609;49.992;14.512;2024-02-16T10:29:09;22.60;;;12.10;;
75038;SDS011;63609;49.992;14.512;2024-02-16T10:31:37;25.45;;;13.57;;
75038;SDS011;63609;49.992;14.512;2024-02-16T10:34:05;19.90;;;8.82;;
75038;SDS011;63609;49.992;14.512;2024-02-16T10:36:34;28.23;;;14.32;;
75038;SDS011;63609;49.992;14.512;2024-02-16T10:39:03;25.38;;;11.75;;
75038;SDS011;63609;49.992;14.512;2024-02-16T10:41:35;26.13;;;12.95;;
75038;SDS011;63609;49.992;14.512;2024-02-16T10:44:04;24.48;;;12.45;;
75038;SDS011;63609;49.992;14.512;2024-02-16T10:46:32;23.08;;;12.10;;
75038;SDS011;63609;49.992;14.512;2024-02-16T10:49:01;30.10;;;13.07;;
75038;SDS011;63609;49.992;14.512;2024-02-16T10:54:19;23.05;;;12.45;;
75038;SDS011;63609;49.992;14.512;2024-02-16T10:56:52;24.73;;;13.35;;
75038;SDS011;63609;49.992;14.512;2024-02-16T10:59:20;23.33;;;12.57;;
75038;SDS011;63609;49.992;14.512;2024-02-16T11:01:47;22.80;;;12.30;;
75038;SDS011;63609;49.992;14.512;2024-02-16T11:04:15;28.50;;;14.20;;
75038;SDS011;63609;49.992;14.512;2024-02-16T11:06:47;24.60;;;13.38;;
75038;SDS011;63609;49.992;14.512;2024-02-16T11:11:52;26.50;;;14.23;;
75038;SDS011;63609;49.992;14.512;2024-02-16T11:14:22;27.08;;;14.05;;
75038;SDS011;63609;49.992;14.512;2024-02-16T11:16:55;26.13;;;13.68;;
75038;SDS011;63609;49.992;14.512;2024-02-16T11:19:22;23.75;;;10.95;;
75038;SDS011;63609;49.992;14.512;2024-02-16T11:21:56;21.98;;;12.48;;
75038;SDS011;63609;49.992;14.512;2024-02-16T11:24:33;23.38;;;13.05;;
75038;SDS011;63609;49.992;14.512;2024-02-16T11:27:01;24.15;;;13.18;;
75038;SDS011;63609;49.992;14.512;2024-02-16T11:29:30;19.90;;;11.68;;
75038;SDS011;63609;49.992;14.512;2024-02-16T11:32:00;23.77;;;11.93;;
75038;SDS011;63609;49.992;14.512;2024-02-16T11:34:29;26.90;;;13.45;;
75038;SDS011;63609;49.992;14.512;2024-02-16T11:36:57;21.70;;;13.05;;
75038;SDS011;63609;49.992;14.512;2024-02-16T11:39:25;22.55;;;12.43;;
75038;SDS011;63609;49.992;14.512;2024-02-16T11:41:59;24.98;;;13.82;;
75038;SDS011;63609;49.992;14.512;2024-02-16T11:44:29;22.17;;;12.80;;
75038;SDS011;63609;49.992;14.512;2024-02-16T11:46:59;24.70;;;13.40;;
75038;SDS011;63609;49.992;14.512;2024-02-16T11:49:28;27.92;;;14.63;;
75038;SDS011;63609;49.992;14.512;2024-02-16T11:51:58;24.67;;;14.55;;
75038;SDS011;63609;49.992;14.512;2024-02-16T11:54:26;25.30;;;14.02;;
75038;SDS011;63609;49.992;14.512;2024-02-16T11:56:53;18.20;;;10.80;;
75038;SDS011;63609;49.992;14.512;2024-02-16T11:59:20;23.27;;;12.57;;
75038;SDS011;63609;49.992;14.512;2024-02-16T12:01:55;22.98;;;13.20;;
75038;SDS011;63609;49.992;14.512;2024-02-16T12:06:58;19.15;;;12.07;;
75038;SDS011;63609;49.992;14.512;2024-02-16T12:09:31;19.95;;;10.70;;
75038;SDS011;63609;49.992;14.512;2024-02-16T12:12:02;18.40;;;11.13;;
75038;SDS011;63609;49.992;14.512;2024-02-16T12:14:29;20.88;;;12.02;;
75038;SDS011;63609;49.992;14.512;2024-02-16T12:16:57;19.85;;;11.43;;
75038;SDS011;63609;49.992;14.512;2024-02-16T12:19:25;18.20;;;11.48;;
75038;SDS011;63609;49.992;14.512;2024-02-16T12:21:53;19.25;;;11.15;;
75038;SDS011;63609;49.992;14.512;2024-02-16T12:24:23;18.42;;;10.98;;
75038;SDS011;63609;49.992;14.512;2024-02-16T12:26:51;21.33;;;12.55;;
75038;SDS011;63609;49.992;14.512;2024-02-16T12:29:18;24.33;;;12.68;;
75038;SDS011;63609;49.992;14.512;2024-02-16T12:31:45;19.30;;;11.75;;
75038;SDS011;63609;49.992;14.512;2024-02-16T12:34:14;18.45;;;11.00;;
75038;SDS011;63609;49.992;14.512;2024-02-16T12:36:42;23.30;;;12.20;;
75038;SDS011;63609;49.992;14.512;2024-02-16T12:39:15;22.65;;;13.07;;
75038;SDS011;63609;49.992;14.512;2024-02-16T12:41:43;19.67;;;11.77;;
75038;SDS011;63609;49.992;14.512;2024-02-16T12:44:10;21.30;;;12.13;;
75038;SDS011;63609;49.992;14.512;2024-02-16T12:46:37;18.95;;;11.55;;
75038;SDS011;63609;49.992;14.512;2024-02-16T12:49:06;20.63;;;12.73;;
75038;SDS011;63609;49.992;14.512;2024-02-16T12:51:33;20.38;;;12.45;;
75038;SDS011;63609;49.992;14.512;2024-02-16T12:54:01;18.65;;;11.27;;
75038;SDS011;63609;49.992;14.512;2024-02-16T12:56:31;21.92;;;12.57;;
75038;SDS011;63609;49.992;14.512;2024-02-16T12:58:58;18.98;;;11.82;;
75038;SDS011;63609;49.992;14.512;2024-02-16T13:01:27;19.80;;;11.23;;
75038;SDS011;63609;49.992;14.512;2024-02-16T13:03:54;22.88;;;12.07;;
75038;SDS011;63609;49.992;14.512;2024-02-16T13:06:21;19.38;;;12.10;;
75038;SDS011;63609;49.992;14.512;2024-02-16T13:08:54;19.63;;;12.07;;
75038;SDS011;63609;49.992;14.512;2024-02-16T13:11:21;20.40;;;14.23;;
75038;SDS011;63609;49.992;14.512;2024-02-16T13:13:48;21.15;;;11.85;;
75038;SDS011;63609;49.992;14.512;2024-02-16T13:16:15;21.60;;;12.75;;
75038;SDS011;63609;49.992;14.512;2024-02-16T13:18:42;18.55;;;12.00;;
75038;SDS011;63609;49.992;14.512;2024-02-16T13:21:09;20.38;;;12.55;;
75038;SDS011;63609;49.992;14.512;2024-02-16T13:23:37;19.58;;;11.95;;
75038;SDS011;63609;49.992;14.512;2024-02-16T13:26:03;19.13;;;11.93;;
75038;SDS011;63609;49.992;14.512;2024-02-16T13:28:31;20.02;;;12.18;;
75038;SDS011;63609;49.992;14.512;2024-02-16T13:30:58;20.02;;;12.05;;
75038;SDS011;63609;49.992;14.512;2024-02-16T13:33:25;18.48;;;10.90;;
75038;SDS011;63609;49.992;14.512;2024-02-16T13:35:53;18.50;;;11.93;;
75038;SDS011;63609;49.992;14.512;2024-02-16T13:38:22;20.95;;;11.95;;
75038;SDS011;63609;49.992;14.512;2024-02-16T13:40:49;23.05;;;12.63;;
75038;SDS011;63609;49.992;14.512;2024-02-16T13:43:16;22.13;;;13.02;;
75038;SDS011;63609;49.992;14.512;2024-02-16T13:45:48;22.35;;;12.57;;
75038;SDS011;63609;49.992;14.512;2024-02-16T13:48:15;23.38;;;11.85;;
75038;SDS011;63609;49.992;14.512;2024-02-16T13:50:48;22.83;;;12.23;;
75038;SDS011;63609;49.992;14.512;2024-02-16T13:53:16;22.63;;;12.68;;
75038;SDS011;63609;49.992;14.512;2024-02-16T13:55:47;21.83;;;12.77;;
75038;SDS011;63609;49.992;14.512;2024-02-16T13:58:14;21.92;;;12.18;;
75038;SDS011;63609;49.992;14.512;2024-02-16T14:00:44;21.10;;;12.82;;
75038;SDS011;63609;49.992;14.512;2024-02-16T14:03:13;22.48;;;12.57;;
75038;SDS011;63609;49.992;14.512;2024-02-16T14:05:41;26.15;;;13.65;;
75038;SDS011;63609;49.992;14.512;2024-02-16T14:08:11;23.35;;;13.23;;
75038;SDS011;63609;49.992;14.512;2024-02-16T14:10:39;22.38;;;12.48;;
75038;SDS011;63609;49.992;14.512;2024-02-16T14:13:06;21.73;;;13.10;;
75038;SDS011;63609;49.992;14.512;2024-02-16T14:15:33;23.63;;;13.07;;
75038;SDS011;63609;49.992;14.512;2024-02-16T14:18:00;23.40;;;12.65;;
75038;SDS011;63609;49.992;14.512;2024-02-16T14:20:37;24.52;;;13.13;;
75038;SDS011;63609;49.992;14.512;2024-02-16T14:23:04;23.17;;;12.73;;
75038;SDS011;63609;49.992;14.512;2024-02-16T14:25:35;22.00;;;12.15;;
75038;SDS011;63609;49.992;14.512;2024-02-16T14:28:04;24.80;;;12.93;;
75038;SDS011;63609;49.992;14.512;2024-02-16T14:30:32;20.65;;;12.65;;
75038;SDS011;63609;49.992;14.512;2024-02-16T14:33:00;19.83;;;12.02;;
75038;SDS011;63609;49.992;14.512;2024-02-16T14:35:31;22.30;;;12.25;;
75038;SDS011;63609;49.992;14.512;2024-02-16T14:38:03;21.17;;;11.98;;
75038;SDS011;63609;49.992;14.512;2024-02-16T14:40:34;20.15;;;11.48;;
75038;SDS011;63609;49.992;14.512;2024-02-16T14:43:01;23.05;;;12.85;;
75038;SDS011;63609;49.992;14.512;2024-02-16T14:45:28;24.65;;;14.13;;
75038;SDS011;63609;49.992;14.512;2024-02-16T14:47:56;23.30;;;12.20;;
75038;SDS011;63609;49.992;14.512;2024-02-16T14:50:24;22.48;;;12.15;;
75038;SDS011;63609;49.992;14.512;2024-02-16T14:52:51;22.30;;;12.93;;
75038;SDS011;63609;49.992;14.512;2024-02-16T14:55:18;21.35;;;13.15;;
75038;SDS011;63609;49.992;14.512;2024-02-16T14:57:45;21.85;;;12.73;;
75038;SDS011;63609;49.992;14.512;2024-02-16T15:00:12;21.20;;;12.52;;
75038;SDS011;63609;49.992;14.512;2024-02-16T15:02:40;22.88;;;13.43;;
75038;SDS011;63609;49.992;14.512;2024-02-16T15:05:09;22.70;;;12.48;;
75038;SDS011;63609;49.992;14.512;2024-02-16T15:07:36;22.75;;;12.02;;
75038;SDS011;63609;49.992;14.512;2024-02-16T15:10:03;22.77;;;13.90;;
75038;SDS011;63609;49.992;14.512;2024-02-16T15:12:31;22.80;;;13.77;;
75038;SDS011;63609;49.992;14.512;2024-02-16T15:14:58;25.40;;;13.40;;